Skip Navigation LinksHome page > Weather > Current weather Skip Navigation Links

Current Weather

General Edward Lawrence Logan Intl, Boston

For information only: do not use for flight planning or navigation.
Latest weather
Observation time Wednesday, December 8, 2021 9:54 AM EST
Local time Wednesday, December 8, 2021 10:42 AM EST
Flight conditions Visual Meteorological Conditions
Winds
Wind direction North-Northwest (340°)
Wind speed 6 mph
Visibility 10 mi.
Sky condition
Ceiling 11,000 ft. broken clouds
Cloud layer few clouds 2,000 ft.
Cloud layer broken clouds 11,000 ft.
Cloud layer overcast 14,000 ft.
Temperature 35°F
Dewpoint 17°F
Altimeter 30.14 in.Hg
Pressure change last 3 hours0.04 in.Hg
Pressure falling more quickly
Derived measurements
Relative humidity 47%
Wind chill 30°F
Density altitude -1797 ft.
Sea-level pressure 30.13 in.Hg
Remarks
Automated weather observing station with precipitation discriminator.
METAR KBOS 081454Z 34005KT 10SM FEW020 BKN110 OVC140 02/M08 A3014 RMK AO2 SLP204 FU FEW020 T00171083 58014

Settings

Location code

InnerDrive.Weather 4.0.6770.0 Release CLR 4.0.30319.42000
Copyright ©2018 Inner Drive Technology. All rights reserved. Portions Copyright ©1986-2018 David Braverman.

Find weather

Site navigation


Skip Navigation Links

Place info

Page info

PayPal - The safer, easier way to pay online!

Return home.

Copyright ©2021 Inner Drive Technology. Purveyors of fine, hand-crafted computer software. Page printed 2021-12-08T15:42:44 UTC.